Joy — V2EI9 — position and weather

sailwx.info

Track history (hours):
 
Tides and Currents Weather Stations Pressure Air Temp Water Temp Dewpoint Dewpoint Depression Visibility Wind Speed Wind Dir Waves Ship Positions

Joy

Last reported at 2017-May-23 05:34 UTC. Time now 2017-May-23 22:17 UTC.
Position N 48°58' W 005°02'.

Length 104 m; draft 6.3 m.

Type: Ship. MMSI: 305444000.

Date/timePositionNaut miles runAvg speedWind from/ knotsBaromVisibWave heightAir tempDewpointWater temp
2017-May-23 05:34N 48°58' W 005°02'1 8.5
2017-May-23 05:29N 48°58' W 005°03'4 8.7
2017-May-23 04:59N 48°55' W 005°09'4 9.2
2017-May-23 04:30N 48°53' W 005°14'5 9.6
2017-May-23 04:00N 48°51' W 005°21'510.0
2017-May-23 03:30N 48°49' W 005°27'5 9.9
2017-May-23 03:00N 48°46' W 005°34'5 9.9
2017-May-23 02:30N 48°42' W 005°38'510.2
2017-May-23 02:00N 48°37' W 005°42'510.3
2017-May-23 01:30N 48°33' W 005°45'510.4
2017-May-23 01:00N 48°28' W 005°49'452 8.9
2017-May-20 22:10N 41°29' W 009°48'1 8.6
2017-May-20 22:00N 41°27' W 009°48'7 8.6
2017-May-20 21:13N 41°21' W 009°48'2 8.7
2017-May-20 21:00N 41°19' W 009°48'4 8.5
2017-May-20 20:30N 41°15' W 009°48'4 8.5
2017-May-20 20:00N 41°10' W 009°48'4 8.4
2017-May-20 19:30N 41°06' W 009°48'4 8.3
2017-May-20 19:00N 41°02' W 009°48'4 8.2
2017-May-20 18:30N 40°58' W 009°49'4 8.3
2017-May-20 18:00N 40°54' W 009°49'4 8.1
2017-May-20 17:31N 40°50' W 009°49'4 8.2
2017-May-20 16:58N 40°45' W 009°49'4 8.2
2017-May-20 16:30N 40°42' W 009°49'4 8.1
2017-May-20 16:00N 40°37' W 009°49'4 8.1
2017-May-20 15:30N 40°33' W 009°48'4 8.2
2017-May-20 15:00N 40°29' W 009°48'25 8.0
2017-May-20 11:50N 40°04' W 009°50'3 8.2
2017-May-20 11:31N 40°01' W 009°50'4 8.2
2017-May-20 11:00N 39°57' W 009°50'4 8.0
2017-May-20 10:30N 39°53' W 009°50'4 8.1
2017-May-20 10:01N 39°49' W 009°50'4 8.0
2017-May-20 09:30N 39°45' W 009°50'5 7.8
2017-May-20 08:49N 39°40' W 009°50'4 7.5
2017-May-20 08:19N 39°36' W 009°50'3 7.6
2017-May-20 07:59N 39°34' W 009°50'3 7.3
2017-May-20 07:30N 39°30' W 009°50'3 7.0
2017-May-20 07:01N 39°27' W 009°50'3 6.7
2017-May-20 06:31N 39°23' W 009°50'3 5.8
2017-May-20 06:00N 39°20' W 009°50'3 6.7
2017-May-20 05:30N 39°17' W 009°51'3 6.9
2017-May-20 05:00N 39°14' W 009°51'3 6.7
2017-May-20 04:31N 39°10' W 009°51'3 6.8
2017-May-20 04:01N 39°07' W 009°51'3 6.5
2017-May-20 03:31N 39°04' W 009°51'3 6.7
2017-May-20 03:00N 39°00' W 009°51'3 6.7
2017-May-20 02:31N 38°57' W 009°51'3 6.8
2017-May-20 02:00N 38°54' W 009°51'3 7.0
2017-May-20 01:30N 38°50' W 009°51'4 7.1
2017-May-20 01:01N 38°47' W 009°51'3 6.7
2017-May-20 00:31N 38°43' W 009°51'3 6.5
2017-May-20 00:01N 38°40' W 009°50'3 6.3
2017-May-19 23:31N 38°37' W 009°48'4 7.1
2017-May-19 23:01N 38°35' W 009°44'4 7.3
2017-May-19 22:31N 38°34' W 009°40'4 7.2
2017-May-19 22:01N 38°32' W 009°36'4 7.7
2017-May-19 21:30N 38°30' W 009°31'4 8.1
2017-May-19 21:01N 38°28' W 009°27'4 8.0
2017-May-19 20:30N 38°26' W 009°23'4 7.8
2017-May-19 20:00N 38°23' W 009°19'4 7.8
2017-May-19 19:30N 38°22' W 009°15'4 7.4
2017-May-19 19:01N 38°21' W 009°10'4 8.9
2017-May-19 18:30N 38°23' W 009°05'5 9.2
2017-May-19 18:00N 38°26' W 009°01'4 8.1
2017-May-19 17:30N 38°28' W 008°57'4 7.8
2017-May-19 17:00N 38°31' W 008°53'2 2.2
2017-May-19 16:18N 38°30' W 008°51'0 0.0
2017-May-19 15:48N 38°30' W 008°51'0 0.0
2017-May-19 15:18N 38°30' W 008°51'0 0.0
2017-May-19 11:54N 38°30' W 008°51'0 0.0
2017-May-19 08:18N 38°30' W 008°51'0 0.0
2017-May-19 08:00N 38°30' W 008°51'0 0.0
2017-May-19 02:02N 38°30' W 008°51'0 0.0
2017-May-18 23:56N 38°30' W 008°51'0 0.0
2017-May-18 13:59N 38°30' W 008°51'0 0.0
2017-May-18 11:56N 38°30' W 008°51'0 0.0
2017-May-18 06:57N 38°30' W 008°51'1 2.7
2017-May-18 06:28N 38°31' W 008°53'5 9.9
2017-May-18 06:00N 38°28' W 008°57'5 9.9
2017-May-18 05:30N 38°24' W 009°01'4 7.6
2017-May-18 05:00N 38°23' W 009°06'4 8.4
2017-May-18 04:30N 38°21' W 009°11'4 7.2
2017-May-18 04:00N 38°22' W 009°16'4 8.2
2017-May-18 03:30N 38°24' W 009°20'4 8.3
2017-May-18 03:00N 38°26' W 009°24'4 8.2
2017-May-18 02:30N 38°29' W 009°28'4 8.4
2017-May-18 02:00N 38°32' W 009°32'4 8.1
2017-May-18 01:30N 38°34' W 009°36'4 8.1
2017-May-18 01:00N 38°37' W 009°40'4 7.7
2017-May-18 00:30N 38°40' W 009°43'4 8.1
2017-May-18 00:00N 38°44' W 009°43'4 8.5
2017-May-17 23:30N 38°49' W 009°44'4 8.5
2017-May-17 23:00N 38°53' W 009°44'4 8.3
2017-May-17 22:30N 38°57' W 009°44'4 8.4
2017-May-17 22:00N 39°01' W 009°44'4 8.3
2017-May-17 21:30N 39°05' W 009°45'4 8.6
2017-May-17 21:00N 39°10' W 009°45'4 8.4
2017-May-17 20:31N 39°14' W 009°44'4 8.7
2017-May-17 20:00N 39°18' W 009°44'4 8.5
2017-May-17 19:30N 39°22' W 009°44'5 8.6
2017-May-17 18:53N 39°28' W 009°44'  
2017-May-14 22:34N 39°27' W 009°44'1 9.7
2017-May-14 22:26N 39°25' W 009°45'4 9.7
2017-May-14 22:00N 39°21' W 009°45'5 9.4
2017-May-14 21:30N 39°17' W 009°46'5 9.1
2017-May-14 21:00N 39°12' W 009°47'5 9.2
2017-May-14 20:30N 39°08' W 009°48'5 9.0
2017-May-14 20:00N 39°03' W 009°49'5 9.4
2017-May-14 19:30N 38°58' W 009°49'5 9.4
2017-May-14 19:00N 38°54' W 009°50'5 9.6
2017-May-14 18:30N 38°49' W 009°51'5 9.7
2017-May-14 18:00N 38°44' W 009°52'5 9.2
2017-May-14 17:30N 38°40' W 009°51'5 9.3
2017-May-14 17:00N 38°35' W 009°49'5 9.4
2017-May-14 16:30N 38°31' W 009°48'5 9.6
2017-May-14 16:00N 38°26' W 009°46'5 9.3
2017-May-14 15:30N 38°21' W 009°45'5 9.2
2017-May-14 15:00N 38°17' W 009°43'5 9.5
2017-May-14 14:30N 38°12' W 009°42'10 9.7
2017-May-14 13:30N 38°03' W 009°39'5 9.9
2017-May-14 13:00N 37°58' W 009°38'510.2
2017-May-14 12:30N 37°53' W 009°36'510.0
2017-May-14 12:00N 37°48' W 009°34'510.0
2017-May-14 11:30N 37°44' W 009°33'5 9.9
2017-May-14 10:57N 37°38' W 009°31'  
Track history (hours):
 
Tides and Currents Weather Stations Pressure Air Temp Water Temp Dewpoint Dewpoint Depression Visibility Wind Speed Wind Dir Waves Ship Positions

Joy

Last reported at 2017-May-23 05:34 UTC. Time now 2017-May-23 22:17 UTC.
Position N 48°58' W 005°02'.

Length 104 m; draft 6.3 m.

Type: Ship. MMSI: 305444000.

Date/timePositionNaut miles runAvg speedWind from/ knotsBaromVisibWave heightAir tempDewpointWater temp
2017-May-23 05:34N 48°58' W 005°02'1 8.5
2017-May-23 05:29N 48°58' W 005°03'4 8.7
2017-May-23 04:59N 48°55' W 005°09'4 9.2
2017-May-23 04:30N 48°53' W 005°14'5 9.6
2017-May-23 04:00N 48°51' W 005°21'510.0
2017-May-23 03:30N 48°49' W 005°27'5 9.9
2017-May-23 03:00N 48°46' W 005°34'5 9.9
2017-May-23 02:30N 48°42' W 005°38'510.2
2017-May-23 02:00N 48°37' W 005°42'510.3
2017-May-23 01:30N 48°33' W 005°45'510.4
2017-May-23 01:00N 48°28' W 005°49'452 8.9
2017-May-20 22:10N 41°29' W 009°48'1 8.6
2017-May-20 22:00N 41°27' W 009°48'7 8.6
2017-May-20 21:13N 41°21' W 009°48'2 8.7
2017-May-20 21:00N 41°19' W 009°48'4 8.5
2017-May-20 20:30N 41°15' W 009°48'4 8.5
2017-May-20 20:00N 41°10' W 009°48'4 8.4
2017-May-20 19:30N 41°06' W 009°48'4 8.3
2017-May-20 19:00N 41°02' W 009°48'4 8.2
2017-May-20 18:30N 40°58' W 009°49'4 8.3
2017-May-20 18:00N 40°54' W 009°49'4 8.1
2017-May-20 17:31N 40°50' W 009°49'4 8.2
2017-May-20 16:58N 40°45' W 009°49'4 8.2
2017-May-20 16:30N 40°42' W 009°49'4 8.1
2017-May-20 16:00N 40°37' W 009°49'4 8.1
2017-May-20 15:30N 40°33' W 009°48'4 8.2
2017-May-20 15:00N 40°29' W 009°48'25 8.0
2017-May-20 11:50N 40°04' W 009°50'3 8.2
2017-May-20 11:31N 40°01' W 009°50'4 8.2
2017-May-20 11:00N 39°57' W 009°50'4 8.0
2017-May-20 10:30N 39°53' W 009°50'4 8.1
2017-May-20 10:01N 39°49' W 009°50'4 8.0
2017-May-20 09:30N 39°45' W 009°50'5 7.8
2017-May-20 08:49N 39°40' W 009°50'4 7.5
2017-May-20 08:19N 39°36' W 009°50'3 7.6
2017-May-20 07:59N 39°34' W 009°50'3 7.3
2017-May-20 07:30N 39°30' W 009°50'3 7.0
2017-May-20 07:01N 39°27' W 009°50'3 6.7
2017-May-20 06:31N 39°23' W 009°50'3 5.8
2017-May-20 06:00N 39°20' W 009°50'3 6.7
2017-May-20 05:30N 39°17' W 009°51'3 6.9
2017-May-20 05:00N 39°14' W 009°51'3 6.7
2017-May-20 04:31N 39°10' W 009°51'3 6.8
2017-May-20 04:01N 39°07' W 009°51'3 6.5
2017-May-20 03:31N 39°04' W 009°51'3 6.7
2017-May-20 03:00N 39°00' W 009°51'3 6.7
2017-May-20 02:31N 38°57' W 009°51'3 6.8
2017-May-20 02:00N 38°54' W 009°51'3 7.0
2017-May-20 01:30N 38°50' W 009°51'4 7.1
2017-May-20 01:01N 38°47' W 009°51'3 6.7
2017-May-20 00:31N 38°43' W 009°51'3 6.5
2017-May-20 00:01N 38°40' W 009°50'3 6.3
2017-May-19 23:31N 38°37' W 009°48'4 7.1
2017-May-19 23:01N 38°35' W 009°44'4 7.3
2017-May-19 22:31N 38°34' W 009°40'4 7.2
2017-May-19 22:01N 38°32' W 009°36'4 7.7
2017-May-19 21:30N 38°30' W 009°31'4 8.1
2017-May-19 21:01N 38°28' W 009°27'4 8.0
2017-May-19 20:30N 38°26' W 009°23'4 7.8
2017-May-19 20:00N 38°23' W 009°19'4 7.8
2017-May-19 19:30N 38°22' W 009°15'4 7.4
2017-May-19 19:01N 38°21' W 009°10'4 8.9
2017-May-19 18:30N 38°23' W 009°05'5 9.2
2017-May-19 18:00N 38°26' W 009°01'4 8.1
2017-May-19 17:30N 38°28' W 008°57'4 7.8
2017-May-19 17:00N 38°31' W 008°53'2 2.2
2017-May-19 16:18N 38°30' W 008°51'0 0.0
2017-May-19 15:48N 38°30' W 008°51'0 0.0
2017-May-19 15:18N 38°30' W 008°51'0 0.0
2017-May-19 11:54N 38°30' W 008°51'0 0.0
2017-May-19 08:18N 38°30' W 008°51'0 0.0
2017-May-19 08:00N 38°30' W 008°51'0 0.0
2017-May-19 02:02N 38°30' W 008°51'0 0.0
2017-May-18 23:56N 38°30' W 008°51'0 0.0
2017-May-18 13:59N 38°30' W 008°51'0 0.0
2017-May-18 11:56N 38°30' W 008°51'0 0.0
2017-May-18 06:57N 38°30' W 008°51'1 2.7
2017-May-18 06:28N 38°31' W 008°53'5 9.9
2017-May-18 06:00N 38°28' W 008°57'5 9.9
2017-May-18 05:30N 38°24' W 009°01'4 7.6
2017-May-18 05:00N 38°23' W 009°06'4 8.4
2017-May-18 04:30N 38°21' W 009°11'4 7.2
2017-May-18 04:00N 38°22' W 009°16'4 8.2
2017-May-18 03:30N 38°24' W 009°20'4 8.3
2017-May-18 03:00N 38°26' W 009°24'4 8.2
2017-May-18 02:30N 38°29' W 009°28'4 8.4
2017-May-18 02:00N 38°32' W 009°32'4 8.1
2017-May-18 01:30N 38°34' W 009°36'4 8.1
2017-May-18 01:00N 38°37' W 009°40'4 7.7
2017-May-18 00:30N 38°40' W 009°43'4 8.1
2017-May-18 00:00N 38°44' W 009°43'4 8.5
2017-May-17 23:30N 38°49' W 009°44'4 8.5
2017-May-17 23:00N 38°53' W 009°44'4 8.3
2017-May-17 22:30N 38°57' W 009°44'4 8.4
2017-May-17 22:00N 39°01' W 009°44'4 8.3
2017-May-17 21:30N 39°05' W 009°45'4 8.6
2017-May-17 21:00N 39°10' W 009°45'4 8.4
2017-May-17 20:31N 39°14' W 009°44'4 8.7
2017-May-17 20:00N 39°18' W 009°44'4 8.5
2017-May-17 19:30N 39°22' W 009°44'5 8.6
2017-May-17 18:53N 39°28' W 009°44'  
2017-May-14 22:34N 39°27' W 009°44'1 9.7
2017-May-14 22:26N 39°25' W 009°45'4 9.7
2017-May-14 22:00N 39°21' W 009°45'5 9.4
2017-May-14 21:30N 39°17' W 009°46'5 9.1
2017-May-14 21:00N 39°12' W 009°47'5 9.2
2017-May-14 20:30N 39°08' W 009°48'5 9.0
2017-May-14 20:00N 39°03' W 009°49'5 9.4
2017-May-14 19:30N 38°58' W 009°49'5 9.4
2017-May-14 19:00N 38°54' W 009°50'5 9.6
2017-May-14 18:30N 38°49' W 009°51'5 9.7
2017-May-14 18:00N 38°44' W 009°52'5 9.2
2017-May-14 17:30N 38°40' W 009°51'5 9.3
2017-May-14 17:00N 38°35' W 009°49'5 9.4
2017-May-14 16:30N 38°31' W 009°48'5 9.6
2017-May-14 16:00N 38°26' W 009°46'5 9.3
2017-May-14 15:30N 38°21' W 009°45'5 9.2
2017-May-14 15:00N 38°17' W 009°43'5 9.5
2017-May-14 14:30N 38°12' W 009°42'10 9.7
2017-May-14 13:30N 38°03' W 009°39'5 9.9
2017-May-14 13:00N 37°58' W 009°38'510.2
2017-May-14 12:30N 37°53' W 009°36'510.0
2017-May-14 12:00N 37°48' W 009°34'510.0
2017-May-14 11:30N 37°44' W 009°33'5 9.9
2017-May-14 10:57N 37°38' W 009°31'  

Dump ship's entire track history